Time;durP1;ratioP1;P1;durP2;ratioP2;P2;SDS_P1;SDS_P2;PMS_P1;PMS_P2;Temp;Humidity;BMP_temperature;BMP_pressure;BME280_temperature;BME280_humidity;BME280_pressure;Samples;Min_cycle;Max_cycle;Signal;HPM_P1;HPM_P2
2023/03/01 00:02:11;;;;;;;8.67;7.97;;;;;;;0.12;71.63;102282.47;5036010;28;20208;-81
2023/03/01 00:04:37;;;;;;;8.37;7.57;;;;;;;0.07;72.32;102286.47;5034668;28;20730;-80
2023/03/01 00:07:04;;;;;;;8.20;7.50;;;;;;;0.07;71.68;102278.78;5036153;28;20271;-81
2023/03/01 00:09:30;;;;;;;8.70;7.90;;;;;;;-0.32;70.93;102302.34;5043640;28;20253;-80
2023/03/01 00:11:56;;;;;;;9.40;8.27;;;;;;;-0.45;70.61;102316.19;5055726;28;20203;-81
2023/03/01 00:14:24;;;;;;;9.37;8.47;;;;;;;-0.50;71.82;102307.31;5035675;28;20250;-81
2023/03/01 00:16:50;;;;;;;10.20;9.10;;;;;;;-0.80;72.20;102309.03;5035737;28;20292;-79
2023/03/01 00:19:19;;;;;;;11.70;10.60;;;;;;;-1.05;73.24;102299.94;5035665;28;20216;-81
2023/03/01 00:21:45;;;;;;;10.73;9.50;;;;;;;-1.04;74.64;102272.63;5035868;28;20199;-81
2023/03/01 00:24:11;;;;;;;10.43;9.30;;;;;;;-0.91;74.69;102241.78;5035447;28;20565;-80
2023/03/01 00:26:38;;;;;;;10.73;9.73;;;;;;;-0.80;74.80;102219.31;5035560;28;20223;-80
2023/03/01 00:29:05;;;;;;;10.20;9.30;;;;;;;-0.68;75.04;102209.72;5035650;28;20210;-81
2023/03/01 00:31:33;;;;;;;10.50;9.33;;;;;;;-0.60;74.71;102187.94;5035606;28;20635;-80
2023/03/01 00:34:01;;;;;;;10.90;9.80;;;;;;;-0.52;75.08;102182.38;5035759;28;20202;-81
2023/03/01 00:36:30;;;;;;;11.60;10.60;;;;;;;-0.46;74.65;102173.31;5033459;28;20281;-80
2023/03/01 00:38:57;;;;;;;10.63;9.63;;;;;;;-0.41;74.65;102176.16;5035541;28;20212;-80
2023/03/01 00:41:26;;;;;;;11.20;10.27;;;;;;;-0.46;74.68;102175.88;5033799;28;20253;-81
2023/03/01 00:43:53;;;;;;;11.00;9.90;;;;;;;-0.45;74.30;102179.34;5035262;28;20212;-80
2023/03/01 00:46:21;;;;;;;9.90;9.00;;;;;;;-0.49;74.30;102169.72;5035098;28;20748;-80
2023/03/01 00:48:49;;;;;;;10.60;9.70;;;;;;;-0.66;74.82;102179.94;5034918;28;20206;-81
2023/03/01 00:51:17;;;;;;;10.47;9.47;;;;;;;-0.65;75.19;102165.44;5035130;28;20209;-80
2023/03/01 00:53:44;;;;;;;10.60;9.60;;;;;;;-0.60;75.02;102167.44;5034731;28;20211;-81
2023/03/01 00:56:12;;;;;;;9.93;9.10;;;;;;;-0.55;74.96;102151.44;5035096;28;20228;-81
2023/03/01 00:58:39;;;;;;;10.00;9.10;;;;;;;-0.92;75.52;102169.94;5035526;28;20207;-80
2023/03/01 01:01:16;;;;;;;10.80;9.70;;;;;;;-0.86;75.93;102152.31;5035055;28;20279;-80
2023/03/01 01:03:43;;;;;;;10.40;9.50;;;;;;;-0.82;76.44;102138.88;5035167;28;20214;-81
2023/03/01 01:06:16;;;;;;;10.57;9.53;;;;;;;-0.80;76.97;102125.31;5034831;28;20220;-80
2023/03/01 01:08:42;;;;;;;10.47;9.47;;;;;;;-0.79;76.63;102118.53;5034984;28;20253;-81
2023/03/01 01:11:09;;;;;;;14.53;10.57;;;;;;;-0.76;76.29;102117.81;5035043;28;20244;-80
2023/03/01 01:13:36;;;;;;;11.03;9.57;;;;;;;-0.76;76.87;102117.81;5035219;28;20207;-80
2023/03/01 01:16:03;;;;;;;10.67;9.67;;;;;;;-0.74;77.13;102108.53;5034562;28;20234;-81
2023/03/01 01:18:29;;;;;;;9.90;9.00;;;;;;;-0.75;77.08;102099.06;5034763;28;20201;-80
2023/03/01 01:20:56;;;;;;;11.20;10.10;;;;;;;-0.75;76.76;102094.84;5034859;28;20636;-80
2023/03/01 01:23:24;;;;;;;10.53;9.63;;;;;;;-0.71;76.10;102101.00;5034758;28;20280;-80
2023/03/01 01:25:50;;;;;;;12.50;9.93;;;;;;;-0.71;75.90;102106.13;5034163;28;20669;-80
2023/03/01 01:28:17;;;;;;;10.73;9.27;;;;;;;-0.68;75.92;102116.53;5034857;28;20216;-81
2023/03/01 01:30:43;;;;;;;10.67;9.67;;;;;;;-0.66;75.68;102117.50;5034596;28;20208;-80
2023/03/01 01:33:09;;;;;;;11.00;10.00;;;;;;;-0.64;74.94;102121.03;5034411;28;20261;-80
2023/03/01 01:35:36;;;;;;;9.33;8.43;;;;;;;-0.63;74.91;102120.25;5034121;28;20230;-80
2023/03/01 01:38:02;;;;;;;10.60;9.60;;;;;;;-0.64;75.36;102131.28;5033957;28;20266;-80
2023/03/01 01:40:30;;;;;;;10.87;9.17;;;;;;;-0.70;75.81;102131.84;5034545;28;20214;-80
2023/03/01 01:42:56;;;;;;;10.17;9.17;;;;;;;-0.72;75.71;102133.44;5034170;28;20207;-81
2023/03/01 01:45:30;;;;;;;9.90;9.10;;;;;;;-0.91;76.83;102117.84;5033963;28;20257;-81
2023/03/01 01:48:01;;;;;;;9.83;8.87;;;;;;;-0.89;76.71;102112.03;5034546;28;20230;-81
2023/03/01 01:50:38;;;;;;;9.90;9.00;;;;;;;-0.86;76.89;102108.75;5034310;28;20683;-80
2023/03/01 01:53:07;;;;;;;9.27;8.47;;;;;;;-0.96;77.97;102103.91;5033570;28;20242;-80
2023/03/01 01:55:40;;;;;;;10.43;9.43;;;;;;;-0.98;78.02;102077.31;5033832;28;20227;-80
2023/03/01 01:58:09;;;;;;;10.27;9.27;;;;;;;-1.02;77.85;102072.00;5033982;28;20236;-80
2023/03/01 02:00:35;;;;;;;10.47;9.37;;;;;;;-1.00;77.50;102072.09;5033313;28;20205;-81
2023/03/01 02:03:05;;;;;;;9.37;8.47;;;;;;;-1.00;78.27;102061.84;5033870;28;20607;-81
2023/03/01 02:05:39;;;;;;;9.67;8.83;;;;;;;-1.09;79.12;102048.53;5033495;28;20228;-81
2023/03/01 02:08:06;;;;;;;9.80;9.00;;;;;;;-1.12;78.88;102021.06;5033954;28;20642;-81
2023/03/01 02:10:35;;;;;;;11.57;10.47;;;;;;;-1.08;79.20;102009.31;5034275;28;20203;-80
2023/03/01 02:13:03;;;;;;;9.90;9.10;;;;;;;-1.06;79.08;102008.59;5033765;28;20209;-81
2023/03/01 02:15:33;;;;;;;10.20;9.37;;;;;;;-1.10;78.94;102003.22;5033795;28;20226;-80
2023/03/01 02:18:00;;;;;;;10.50;9.50;;;;;;;-1.14;78.91;101996.19;5033812;28;20269;-81
2023/03/01 02:20:33;;;;;;;10.40;9.40;;;;;;;-1.10;78.53;102000.66;5033324;28;20739;-80
2023/03/01 02:23:01;;;;;;;10.77;9.87;;;;;;;-1.00;78.08;102008.03;5033509;28;20209;-81
2023/03/01 02:25:35;;;;;;;10.27;9.37;;;;;;;-1.02;77.66;102020.75;5033371;28;20287;-81
2023/03/01 02:28:09;;;;;;;10.23;9.43;;;;;;;-0.97;77.17;102022.69;5033701;28;20230;-81
2023/03/01 02:30:37;;;;;;;10.97;9.97;;;;;;;-0.91;77.33;102028.13;5033682;28;20257;-81
2023/03/01 02:33:04;;;;;;;11.00;10.10;;;;;;;-1.04;77.01;102049.69;5033642;28;20267;-81
2023/03/01 02:35:33;;;;;;;10.53;9.63;;;;;;;-1.07;76.34;102059.75;5033095;28;20231;-81
2023/03/01 02:38:01;;;;;;;10.63;9.67;;;;;;;-1.14;76.83;102076.47;5032959;28;20231;-81
2023/03/01 02:40:31;;;;;;;10.50;9.60;;;;;;;-1.25;77.63;102057.06;5033172;28;20210;-81
2023/03/01 02:42:59;;;;;;;10.90;9.90;;;;;;;-1.29;77.77;102048.34;5033353;28;20678;-80
2023/03/01 02:45:27;;;;;;;10.00;9.10;;;;;;;-1.25;76.96;102055.41;5033393;28;20206;-81
2023/03/01 02:47:56;;;;;;;10.73;9.77;;;;;;;-1.21;76.80;102053.88;5033520;28;20223;-81
2023/03/01 02:50:46;;;;;;;9.87;9.03;;;;;;;-1.22;76.91;102053.00;5033378;28;20210;-81
2023/03/01 02:53:22;;;;;;;10.33;9.43;;;;;;;-1.20;76.92;102056.53;5033362;28;20563;-81
2023/03/01 02:55:49;;;;;;;10.47;9.47;;;;;;;-1.16;77.07;102059.25;5032421;28;20593;-81
2023/03/01 02:58:15;;;;;;;10.30;9.40;;;;;;;-1.13;77.08;102059.41;5032968;28;20695;-81
2023/03/01 03:00:45;;;;;;;10.67;9.67;;;;;;;-1.17;76.57;102071.16;5033298;28;20674;-81
2023/03/01 03:03:14;;;;;;;10.97;9.97;;;;;;;-1.16;76.78;102072.06;5032041;28;20258;-81
2023/03/01 03:05:41;;;;;;;11.37;10.20;;;;;;;-1.22;76.79;102073.50;5032923;28;20214;-81
2023/03/01 03:08:07;;;;;;;10.27;9.37;;;;;;;-1.18;77.14;102063.44;5032762;28;20624;-81
2023/03/01 03:10:36;;;;;;;10.23;9.27;;;;;;;-1.14;76.92;102060.22;5033140;28;20202;-81
2023/03/01 03:13:05;;;;;;;9.80;9.00;;;;;;;-1.14;76.59;102055.09;5031928;28;20203;-81
2023/03/01 03:15:35;;;;;;;10.43;9.53;;;;;;;-1.15;76.62;102053.31;5032391;28;20206;-81
2023/03/01 03:18:03;;;;;;;10.50;9.47;;;;;;;-1.15;76.06;102056.78;5032884;28;20665;-81
2023/03/01 03:20:31;;;;;;;9.97;8.90;;;;;;;-1.25;75.96;102069.88;5032784;28;20355;-81
2023/03/01 03:22:59;;;;;;;11.23;10.23;;;;;;;-1.42;76.42;102084.31;5033192;28;20211;-82
2023/03/01 03:25:26;;;;;;;10.47;9.07;;;;;;;-1.43;76.88;102072.28;5032749;28;20617;-81
2023/03/01 03:27:56;;;;;;;10.13;9.13;;;;;;;-1.41;76.80;102058.78;5033029;28;20225;-81
2023/03/01 03:30:25;;;;;;;11.20;9.63;;;;;;;-1.35;77.22;102055.66;5032573;28;20696;-81
2023/03/01 03:32:52;;;;;;;10.43;9.43;;;;;;;-1.33;76.67;102066.00;5033157;28;20254;-81
2023/03/01 03:35:20;;;;;;;10.83;9.83;;;;;;;-1.39;76.87;102063.97;5032608;28;20208;-81
2023/03/01 03:38:02;;;;;;;9.47;8.57;;;;;;;-1.36;77.09;102063.28;5032756;28;20357;-81
2023/03/01 03:40:31;;;;;;;9.30;8.50;;;;;;;-1.35;76.69;102063.34;5032733;28;20682;-80
2023/03/01 03:42:58;;;;;;;10.63;9.67;;;;;;;-1.35;77.20;102053.09;5032576;28;20211;-82
2023/03/01 03:45:25;;;;;;;10.43;9.53;;;;;;;-1.34;77.19;102064.25;5032272;28;20265;-82
2023/03/01 03:47:51;;;;;;;10.77;9.80;;;;;;;-1.31;77.13;102057.63;5032383;28;20256;-81
2023/03/01 03:50:19;;;;;;;11.23;10.23;;;;;;;-1.31;77.45;102044.81;5032695;28;20591;-81
2023/03/01 03:52:45;;;;;;;10.60;9.70;;;;;;;-1.33;77.15;102059.19;5032465;28;20203;-81
2023/03/01 03:55:13;;;;;;;11.80;10.67;;;;;;;-1.47;78.58;102060.97;5032432;28;20210;-81
2023/03/01 03:57:41;;;;;;;11.57;10.47;;;;;;;-1.58;79.62;102039.03;5032489;28;20715;-81
2023/03/01 04:00:12;;;;;;;11.43;10.37;;;;;;;-1.57;79.90;102009.19;5032910;28;20212;-81
2023/03/01 04:02:39;;;;;;;11.60;10.40;;;;;;;-1.76;80.46;101992.81;5033106;28;20212;-81
2023/03/01 04:05:07;;;;;;;10.83;9.90;;;;;;;-1.67;80.42;101964.25;5032704;28;20202;-81
2023/03/01 04:07:34;;;;;;;11.97;10.97;;;;;;;-1.67;80.13;101954.91;5032601;28;20323;-81
2023/03/01 04:10:00;;;;;;;10.90;9.90;;;;;;;-1.71;80.45;101945.28;5033236;28;20584;-81
2023/03/01 04:12:28;;;;;;;11.83;9.97;;;;;;;-1.76;80.41;101944.16;5033153;28;20212;-81
2023/03/01 04:14:54;;;;;;;10.90;9.97;;;;;;;-1.76;80.90;101933.94;5033973;28;20279;-81
2023/03/01 04:17:20;;;;;;;11.37;10.13;;;;;;;-1.80;80.85;101924.31;5036678;28;20709;-81
2023/03/01 04:19:48;;;;;;;11.30;9.43;;;;;;;-1.94;80.95;101922.66;5036462;28;20265;-81
2023/03/01 04:22:17;;;;;;;10.63;9.67;;;;;;;-1.84;80.98;101920.72;5036397;28;20207;-81
2023/03/01 04:24:44;;;;;;;10.10;9.30;;;;;;;-1.94;81.03;101925.22;5036257;28;20269;-81
2023/03/01 04:27:10;;;;;;;10.30;9.40;;;;;;;-2.02;81.13;101935.91;5036573;28;20222;-81
2023/03/01 04:29:38;;;;;;;10.23;9.33;;;;;;;-2.03;81.17;101923.91;5036284;28;20206;-81
2023/03/01 04:32:05;;;;;;;9.73;8.90;;;;;;;-2.01;81.50;101921.44;5036383;28;20199;-81
2023/03/01 04:34:31;;;;;;;9.83;8.93;;;;;;;-2.00;81.95;101911.31;5036429;28;20203;-81
2023/03/01 04:36:57;;;;;;;9.57;8.67;;;;;;;-2.05;81.19;101910.16;5036167;28;20610;-81
2023/03/01 04:39:24;;;;;;;10.40;9.50;;;;;;;-2.10;81.08;101921.81;5036619;28;20277;-81
2023/03/01 04:41:50;;;;;;;9.90;8.93;;;;;;;-2.03;81.23;101918.78;5037098;28;20642;-80
2023/03/01 04:44:16;;;;;;;10.00;8.77;;;;;;;-2.11;81.83;101920.03;5036962;28;20260;-81
2023/03/01 04:46:44;;;;;;;9.73;8.90;;;;;;;-2.03;82.27;101910.25;5036923;28;20778;-81
2023/03/01 04:49:10;;;;;;;9.70;8.80;;;;;;;-2.10;81.82;101895.34;5037012;28;20204;-81
2023/03/01 04:51:37;;;;;;;10.23;9.23;;;;;;;-1.98;82.11;101898.59;5036967;28;20229;-81
2023/03/01 04:54:08;;;;;;;12.03;9.67;;;;;;;-2.01;82.01;101893.31;5036844;28;20216;-81
2023/03/01 04:56:35;;;;;;;10.73;9.73;;;;;;;-2.03;81.98;101890.66;5036988;28;20280;-81
2023/03/01 04:59:05;;;;;;;11.47;10.47;;;;;;;-2.08;82.87;101886.06;5036787;28;20253;-81
2023/03/01 05:01:31;;;;;;;12.37;11.23;;;;;;;-2.10;82.87;101873.22;5036581;28;20211;-81
2023/03/01 05:04:02;;;;;;;10.73;9.83;;;;;;;-2.12;83.24;101863.66;5035902;28;20206;-81
2023/03/01 05:06:29;;;;;;;12.40;11.40;;;;;;;-2.03;83.04;101859.94;5036336;28;20236;-82
2023/03/01 05:08:56;;;;;;;13.60;11.50;;;;;;;-1.94;82.45;101859.59;5035898;28;20207;-81
2023/03/01 05:11:22;;;;;;;11.47;10.57;;;;;;;-2.01;82.15;101871.16;5036473;28;20207;-81
2023/03/01 05:13:49;;;;;;;11.90;10.87;;;;;;;-2.04;82.51;101875.25;5036055;28;20699;-81
2023/03/01 05:16:16;;;;;;;12.20;10.77;;;;;;;-2.09;82.90;101868.97;5035940;28;20238;-81
2023/03/01 05:18:43;;;;;;;12.83;11.73;;;;;;;-2.03;82.50;101861.63;5036489;28;20663;-81
2023/03/01 05:21:15;;;;;;;12.70;11.50;;;;;;;-2.07;82.29;101875.94;5036764;28;20241;-81
2023/03/01 05:23:42;;;;;;;12.70;11.50;;;;;;;-2.17;82.46;101877.91;5037218;28;20232;-82
2023/03/01 05:26:09;;;;;;;17.20;12.03;;;;;;;-2.20;82.61;101870.91;5035817;28;20288;-81
2023/03/01 05:28:37;;;;;;;12.30;11.30;;;;;;;-2.18;81.20;101873.56;5036673;28;20728;-81
2023/03/01 05:31:09;;;;;;;12.70;11.70;;;;;;;-2.19;81.44;101893.16;5036476;28;20289;-81
2023/03/01 05:33:36;;;;;;;12.03;11.10;;;;;;;-2.32;82.17;101911.16;5036620;28;20224;-82
2023/03/01 05:36:03;;;;;;;12.43;11.43;;;;;;;-2.35;82.21;101899.06;5037133;28;20256;-81
2023/03/01 05:38:31;;;;;;;12.43;11.33;;;;;;;-2.31;82.24;101895.03;5037247;28;20233;-81
2023/03/01 05:40:57;;;;;;;12.03;11.03;;;;;;;-2.27;82.39;101886.72;5037095;28;20211;-81
2023/03/01 05:43:23;;;;;;;12.30;11.23;;;;;;;-2.30;82.92;101887.44;5036379;28;20199;-82
2023/03/01 05:45:50;;;;;;;13.70;12.50;;;;;;;-2.29;82.75;101881.53;5037226;28;20268;-82
2023/03/01 05:48:19;;;;;;;12.30;11.20;;;;;;;-2.23;82.64;101875.88;5038029;28;20207;-82
2023/03/01 05:50:47;;;;;;;12.77;11.47;;;;;;;-2.26;81.77;101891.94;5037920;28;20209;-82
2023/03/01 05:53:15;;;;;;;13.30;12.10;;;;;;;-2.40;80.84;101919.28;5038492;28;20210;-81
2023/03/01 05:55:44;;;;;;;13.03;11.90;;;;;;;-2.39;80.50;101930.38;5036918;28;20272;-81
2023/03/01 05:58:13;;;;;;;12.67;11.47;;;;;;;-2.33;79.77;101933.28;5043294;22;20238;-81
2023/03/01 06:00:40;;;;;;;15.10;12.67;;;;;;;-2.47;80.74;101958.06;5014870;28;20305;-81
2023/03/01 06:03:06;;;;;;;14.63;12.80;;;;;;;-2.43;81.96;101943.78;5015262;28;20297;-82
2023/03/01 06:05:33;;;;;;;11.70;10.50;;;;;;;-2.43;81.10;101931.00;5014350;28;20230;-80
2023/03/01 06:08:00;;;;;;;13.93;12.73;;;;;;;-2.60;82.28;101935.13;5015198;28;20283;-82
2023/03/01 06:10:26;;;;;;;13.03;11.37;;;;;;;-2.56;82.59;101923.41;5014456;28;20258;-82
2023/03/01 06:12:54;;;;;;;14.03;12.63;;;;;;;-2.61;83.27;101913.78;5022045;28;20254;-81
2023/03/01 06:15:21;;;;;;;15.03;13.80;;;;;;;-2.67;83.61;101897.22;5032590;28;20566;-82
2023/03/01 06:17:47;;;;;;;14.23;13.03;;;;;;;-2.71;84.38;101877.41;4996972;28;20239;-81
2023/03/01 06:20:17;;;;;;;15.70;14.30;;;;;;;-2.66;84.56;101860.66;4994502;28;20195;-81
2023/03/01 06:22:44;;;;;;;15.20;13.90;;;;;;;-2.62;84.32;101855.81;4994241;28;20795;-80
2023/03/01 06:25:12;;;;;;;16.13;14.63;;;;;;;-2.66;83.87;101848.75;5006390;28;20211;-83
2023/03/01 06:27:39;;;;;;;16.63;15.07;;;;;;;-2.61;84.45;101846.47;4990838;28;20243;-82
2023/03/01 06:30:13;;;;;;;15.17;13.87;;;;;;;-2.63;84.26;101843.81;4981135;28;20207;-80
2023/03/01 06:32:41;;;;;;;15.23;14.03;;;;;;;-2.55;84.11;101843.38;4979751;28;20208;-82
2023/03/01 06:35:08;;;;;;;14.30;12.97;;;;;;;-2.56;83.82;101857.81;4997153;28;20203;-82
2023/03/01 06:37:35;;;;;;;15.10;13.80;;;;;;;-2.52;83.67;101858.88;5005411;28;20273;-81
2023/03/01 06:40:04;;;;;;;15.37;13.80;;;;;;;-2.52;84.14;101858.88;4993394;28;20268;-84
2023/03/01 06:42:31;;;;;;;14.63;13.40;;;;;;;-2.56;83.71;101864.59;4990918;28;20211;-83
2023/03/01 06:44:57;;;;;;;16.10;14.43;;;;;;;-2.54;84.00;101873.25;5003811;28;20246;-81
2023/03/01 06:47:25;;;;;;;16.27;14.13;;;;;;;-2.53;83.06;101863.13;5026892;28;20218;-81
2023/03/01 06:49:51;;;;;;;15.13;13.80;;;;;;;-2.41;82.52;101883.38;5024270;28;20234;-81
2023/03/01 06:52:17;;;;;;;14.00;12.87;;;;;;;-2.33;82.59;101894.94;5027268;28;20660;-83
2023/03/01 06:54:44;;;;;;;13.30;12.20;;;;;;;-2.37;82.75;101903.22;5027528;28;20199;-83
2023/03/01 06:57:10;;;;;;;14.60;13.20;;;;;;;-2.37;82.51;101907.47;5024416;28;20228;-82
2023/03/01 06:59:36;;;;;;;14.20;12.90;;;;;;;-2.28;82.64;101910.53;5026843;28;20221;-83
2023/03/01 07:02:03;;;;;;;12.63;11.50;;;;;;;-2.11;82.29;101906.38;5021956;28;20199;-81
2023/03/01 07:04:31;;;;;;;273.33;134.07;;;;;;;-2.10;81.30;101918.34;5025123;28;20203;-83
2023/03/01 07:06:57;;;;;;;180.73;85.03;;;;;;;-2.18;81.04;101938.41;5031045;28;20278;-82
2023/03/01 07:09:24;;;;;;;465.53;218.93;;;;;;;-2.33;80.79;101953.75;5028732;28;20202;-83
2023/03/01 07:11:51;;;;;;;38.20;22.97;;;;;;;-2.52;81.39;101961.13;5023752;28;20231;-84
2023/03/01 07:14:19;;;;;;;34.47;23.30;;;;;;;-2.45;81.70;101963.28;5022739;28;20238;-82
2023/03/01 07:16:46;;;;;;;19.23;15.83;;;;;;;-2.51;81.18;101955.25;5023100;28;20218;-83
2023/03/01 07:19:12;;;;;;;14.53;13.23;;;;;;;-2.51;81.64;101953.56;5023732;28;20198;-83
2023/03/01 07:21:40;;;;;;;13.47;11.30;;;;;;;-2.43;81.64;101947.22;5023761;28;20200;-82
2023/03/01 07:24:07;;;;;;;11.43;10.43;;;;;;;-2.24;81.67;101943.16;5024062;28;20254;-83
2023/03/01 07:26:34;;;;;;;12.20;11.10;;;;;;;-2.12;81.17;101935.28;5021511;28;20257;-81
2023/03/01 07:29:00;;;;;;;11.80;10.27;;;;;;;-2.03;81.08;101941.81;5024443;28;20200;-83
2023/03/01 07:31:27;;;;;;;11.97;10.77;;;;;;;-1.93;80.91;101945.78;5024806;28;20196;-82
2023/03/01 07:33:54;;;;;;;11.23;10.23;;;;;;;-1.88;80.63;101956.28;5020607;28;20623;-81
2023/03/01 07:36:20;;;;;;;11.43;10.10;;;;;;;-1.92;80.35;101969.69;5024203;28;20610;-84
2023/03/01 07:38:48;;;;;;;11.80;10.47;;;;;;;-1.88;80.39;101969.09;5031249;28;20223;-83
2023/03/01 07:41:14;;;;;;;11.03;10.13;;;;;;;-1.80;80.59;101970.41;5026107;28;20194;-83
2023/03/01 07:43:41;;;;;;;12.07;10.97;;;;;;;-1.69;80.51;101958.19;5026292;28;20207;-83
2023/03/01 07:46:07;;;;;;;13.03;11.93;;;;;;;-1.76;80.29;101968.88;5024009;28;20691;-83
2023/03/01 07:48:34;;;;;;;12.20;11.20;;;;;;;-2.10;81.21;101978.09;5027810;28;20216;-83
2023/03/01 07:51:02;;;;;;;13.30;12.00;;;;;;;-2.38;82.96;101952.59;5033510;28;20577;-83
2023/03/01 07:53:28;;;;;;;14.13;12.93;;;;;;;-2.73;84.98;101919.88;5032398;28;20259;-83
2023/03/01 07:56:03;;;;;;;13.37;12.27;;;;;;;-2.83;86.64;101867.34;5033315;28;20202;-83
2023/03/01 07:58:29;;;;;;;14.40;13.10;;;;;;;-2.96;88.57;101821.44;5028483;28;20225;-82
2023/03/01 08:00:56;;;;;;;16.30;13.80;;;;;;;-3.00;89.46;101771.84;5027026;28;20211;-84
2023/03/01 08:03:22;;;;;;;15.00;13.60;;;;;;;-2.92;90.58;101731.41;5033638;28;20733;-83
2023/03/01 08:05:48;;;;;;;17.40;14.37;;;;;;;-2.81;90.71;101705.66;5032031;28;20233;-83
2023/03/01 08:08:15;;;;;;;17.00;15.37;;;;;;;-2.69;90.79;101687.56;5031942;28;20755;-83
2023/03/01 08:10:41;;;;;;;19.60;14.83;;;;;;;-2.48;90.48;101675.09;5033187;28;20702;-84
2023/03/01 08:13:09;;;;;;;15.93;13.73;;;;;;;-2.38;89.64;101678.13;5029877;28;20203;-84
2023/03/01 08:15:35;;;;;;;16.47;14.87;;;;;;;-2.25;89.26;101681.41;5026858;28;20201;-83
2023/03/01 08:18:01;;;;;;;17.30;15.70;;;;;;;-2.06;89.33;101683.28;5028193;28;20227;-85
2023/03/01 08:20:28;;;;;;;17.00;15.40;;;;;;;-1.88;88.89;101690.16;5031840;28;20225;-84
2023/03/01 08:22:54;;;;;;;17.67;15.90;;;;;;;-1.73;88.29;101707.97;5029851;28;20224;-84
2023/03/01 08:25:20;;;;;;;21.53;15.77;;;;;;;-1.67;87.84;101721.94;5032003;28;20199;-84
2023/03/01 08:27:47;;;;;;;16.40;14.70;;;;;;;-1.51;87.30;101731.28;5032904;28;20214;-84
2023/03/01 08:30:15;;;;;;;15.43;14.13;;;;;;;-1.34;86.49;101742.41;5032379;28;20225;-85
2023/03/01 08:32:41;;;;;;;14.63;13.23;;;;;;;-1.18;85.78;101763.69;5031383;28;20675;-84
2023/03/01 08:35:08;;;;;;;14.33;13.07;;;;;;;-1.06;84.63;101790.78;5031038;28;20203;-85
2023/03/01 08:37:35;;;;;;;14.53;13.07;;;;;;;-0.99;84.27;101815.03;5034597;28;20227;-84
2023/03/01 08:40:03;;;;;;;18.00;14.23;;;;;;;-0.94;83.39;101839.19;5035827;28;20213;-84
2023/03/01 08:42:29;;;;;;;14.83;13.57;;;;;;;-0.85;83.23;101867.88;5033547;28;20261;-84
2023/03/01 08:44:56;;;;;;;16.53;14.83;;;;;;;-0.78;82.58;101884.44;5032270;28;20200;-85
2023/03/01 08:47:24;;;;;;;17.67;14.80;;;;;;;-0.71;81.24;101912.16;5032622;28;20221;-84
2023/03/01 08:49:51;;;;;;;16.63;15.13;;;;;;;-0.69;81.83;101938.75;5030955;28;20201;-81
2023/03/01 08:52:17;;;;;;;15.90;14.40;;;;;;;-0.71;82.48;101939.47;5028684;28;20210;-84
2023/03/01 08:54:44;;;;;;;15.37;13.93;;;;;;;-0.69;82.64;101930.19;5028700;28;20195;-82
2023/03/01 08:57:10;;;;;;;14.90;13.53;;;;;;;-0.62;82.46;101933.09;5026639;28;20233;-84
2023/03/01 08:59:37;;;;;;;14.67;13.17;;;;;;;-0.50;81.26;101949.94;5029079;28;20256;-83
2023/03/01 09:02:03;;;;;;;14.97;13.60;;;;;;;-0.45;81.22;101972.44;5026888;28;20287;-83
2023/03/01 09:04:33;;;;;;;14.73;13.27;;;;;;;-0.41;81.26;101974.38;5026231;28;20261;-81
2023/03/01 09:06:59;;;;;;;14.43;13.20;;;;;;;-0.39;81.29;101982.16;5030568;28;20222;-82
2023/03/01 09:09:25;;;;;;;14.07;12.80;;;;;;;-0.39;81.20;101994.09;5031092;28;20256;-82
2023/03/01 09:11:52;;;;;;;13.93;12.63;;;;;;;-0.32;81.33;101984.19;5028311;28;20206;-81
2023/03/01 09:14:18;;;;;;;14.60;13.33;;;;;;;-0.21;80.11;101992.44;5026289;28;20672;-82
2023/03/01 09:16:44;;;;;;;14.00;12.60;;;;;;;-0.17;80.79;102006.31;5037829;28;20222;-80
2023/03/01 09:19:11;;;;;;;12.90;11.80;;;;;;;-0.12;79.85;102012.53;5039897;28;20694;-82
2023/03/01 09:21:40;;;;;;;14.13;12.63;;;;;;;-0.11;81.12;102009.19;5042211;28;20199;-82
2023/03/01 09:24:07;;;;;;;14.43;13.13;;;;;;;-0.08;81.49;101999.06;5041219;28;20191;-81
2023/03/01 09:26:33;;;;;;;13.17;12.07;;;;;;;0.05;80.45;102000.56;5040371;28;20231;-81
2023/03/01 09:29:00;;;;;;;13.17;11.80;;;;;;;0.04;79.97;102003.91;5038417;28;20200;-81
2023/03/01 09:31:26;;;;;;;17.00;11.80;;;;;;;0.15;80.08;102007.91;5040919;28;20291;-82
2023/03/01 09:33:54;;;;;;;14.43;12.37;;;;;;;0.17;79.84;102021.69;5041673;28;20198;-81
2023/03/01 09:36:22;;;;;;;12.67;11.27;;;;;;;0.25;79.48;102020.38;5039279;28;20201;-81
2023/03/01 09:38:51;;;;;;;13.43;11.90;;;;;;;0.17;80.01;102037.09;5043371;28;20731;-81
2023/03/01 09:41:34;;;;;;;13.33;12.13;;;;;;;0.29;80.34;102022.28;5041685;28;20210;-81
2023/03/01 09:44:05;;;;;;;13.57;12.27;;;;;;;0.44;78.52;102028.97;5037627;28;20350;-80
2023/03/01 09:46:41;;;;;;;12.83;11.63;;;;;;;0.51;78.37;102046.44;5038883;28;20207;-81
2023/03/01 09:49:16;;;;;;;13.33;11.93;;;;;;;0.57;77.53;102067.28;5036172;28;20198;-82
2023/03/01 09:51:43;;;;;;;13.67;12.27;;;;;;;0.56;78.34;102075.81;5036154;28;20233;-82
2023/03/01 09:54:11;;;;;;;13.37;12.13;;;;;;;0.70;77.98;102081.63;5038963;28;20205;-82
2023/03/01 09:56:42;;;;;;;12.50;11.20;;;;;;;0.70;78.09;102081.63;5037941;28;20195;-80
2023/03/01 09:59:23;;;;;;;11.43;10.43;;;;;;;0.66;77.24;102087.44;5038709;28;20223;-82
2023/03/01 10:01:57;;;;;;;11.97;9.63;;;;;;;0.70;75.79;102104.75;5028506;28;20195;-80
2023/03/01 10:04:42;;;;;;;10.93;9.73;;;;;;;0.96;81.19;102062.28;5029915;28;20217;-81
2023/03/01 10:07:26;;;;;;;15.53;11.87;;;;;;;1.32;86.00;101967.03;5033404;28;20611;-81
2023/03/01 10:09:54;;;;;;;17.63;12.17;;;;;;;1.75;92.78;101792.09;5033166;28;20248;-82
2023/03/01 10:12:25;;;;;;;14.53;10.97;;;;;;;1.89;93.58;101684.50;5028664;28;20196;-82
2023/03/01 10:14:58;;;;;;;14.37;11.67;;;;;;;2.09;94.42;101651.75;5027133;28;20258;-81
2023/03/01 10:17:34;;;;;;;17.40;12.97;;;;;;;2.32;94.07;101623.31;5028790;28;20273;-80
2023/03/01 10:20:17;;;;;;;16.13;12.13;;;;;;;2.45;90.67;101632.34;5026549;28;20230;-82
2023/03/01 10:22:46;;;;;;;15.10;12.03;;;;;;;2.52;87.72;101712.50;5028743;28;20359;-82
2023/03/01 10:25:15;;;;;;;14.83;10.97;;;;;;;2.76;87.10;101719.31;5037274;28;20203;-82
2023/03/01 10:27:48;;;;;;;11.07;9.10;;;;;;;2.59;74.98;101886.28;5038241;28;20286;-83
2023/03/01 10:30:21;;;;;;;10.77;9.87;;;;;;;2.76;80.17;101990.03;5037078;28;20192;-83
2023/03/01 10:32:52;;;;;;;9.07;8.27;;;;;;;2.68;72.73;102038.72;5037104;28;20207;-81
2023/03/01 10:35:20;;;;;;;9.33;8.23;;;;;;;2.62;68.62;102169.06;5036129;28;20203;-82
2023/03/01 10:37:58;;;;;;;10.37;7.20;;;;;;;2.59;69.13;102260.94;5036765;28;20236;-81
2023/03/01 10:40:26;;;;;;;7.93;7.13;;;;;;;2.55;67.32;102336.38;5051986;28;20662;-81
2023/03/01 10:42:52;;;;;;;8.53;7.37;;;;;;;2.57;70.71;102386.28;5058796;28;20207;-82
2023/03/01 10:45:32;;;;;;;8.17;7.17;;;;;;;2.74;72.15;102378.47;5059345;28;20661;-81
2023/03/01 10:48:07;;;;;;;9.60;6.87;;;;;;;2.88;70.46;102364.47;5057653;28;20281;-81
2023/03/01 10:50:33;;;;;;;7.20;6.47;;;;;;;2.88;66.08;102390.25;5057947;28;20206;-81
2023/03/01 10:53:02;;;;;;;7.23;6.53;;;;;;;2.93;69.54;102435.22;5056913;28;20235;-81
2023/03/01 10:55:34;;;;;;;7.27;6.57;;;;;;;2.93;69.50;102462.66;5057041;28;20212;-82
2023/03/01 10:58:19;;;;;;;7.10;6.40;;;;;;;2.93;67.62;102488.47;5056029;28;20239;-82
2023/03/01 11:00:48;;;;;;;6.97;6.00;;;;;;;2.90;65.99;102490.94;5057003;28;20196;-80
2023/03/01 11:03:18;;;;;;;7.43;6.63;;;;;;;2.96;66.82;102492.06;5057646;28;20587;-80
2023/03/01 11:06:00;;;;;;;6.50;5.90;;;;;;;2.95;63.65;102543.59;5057171;28;20205;-80
2023/03/01 11:08:32;;;;;;;8.67;5.97;;;;;;;2.89;63.97;102592.31;5055392;28;20222;-82
2023/03/01 11:11:15;;;;;;;6.33;5.77;;;;;;;2.94;64.22;102596.00;5041197;28;20208;-80
2023/03/01 11:13:51;;;;;;;7.07;6.40;;;;;;;2.93;64.81;102618.34;5036771;28;20207;-82
2023/03/01 11:16:25;;;;;;;6.80;6.17;;;;;;;3.07;66.54;102621.59;5036068;28;20210;-82
2023/03/01 11:18:58;;;;;;;7.00;6.30;;;;;;;3.13;66.01;102597.72;5035076;28;20231;-81
2023/03/01 11:21:27;;;;;;;8.40;6.40;;;;;;;3.20;64.19;102583.44;5029537;28;20192;-82
2023/03/01 11:23:53;;;;;;;14.50;6.00;;;;;;;3.15;63.28;102609.91;5024625;28;20205;-81